sensor_id;sensor_type;location;lat;lon;timestamp;pressure;altitude;pressure_sealevel;temperature;humidity
5146;BME280;2591;48.144;15.152;2023-07-13T00:01:07;74736.97;;;-144.65;100.00
5146;BME280;2591;48.144;15.152;2023-07-13T00:03:34;74741.03;;;-144.65;100.00
5146;BME280;2591;48.144;15.152;2023-07-13T00:06:02;74739.00;;;-144.65;100.00
5146;BME280;2591;48.144;15.152;2023-07-13T00:08:31;74724.75;;;-144.65;100.00
5146;BME280;2591;48.144;15.152;2023-07-13T00:11:02;74734.94;;;-144.65;100.00
5146;BME280;2591;48.144;15.152;2023-07-13T00:13:30;74732.88;;;-144.65;100.00
5146;BME280;2591;48.144;15.152;2023-07-13T00:16:37;74728.81;;;-144.65;100.00
5146;BME280;2591;48.144;15.152;2023-07-13T00:19:44;74730.84;;;-144.65;100.00
5146;BME280;2591;48.144;15.152;2023-07-13T00:22:49;74718.63;;;-144.65;100.00
5146;BME280;2591;48.144;15.152;2023-07-13T00:25:56;74706.41;;;-144.65;100.00
5146;BME280;2591;48.144;15.152;2023-07-13T00:29:02;74706.41;;;-144.65;100.00
5146;BME280;2591;48.144;15.152;2023-07-13T00:32:10;74704.34;;;-144.65;100.00
5146;BME280;2591;48.144;15.152;2023-07-13T00:35:16;74696.19;;;-144.65;100.00
5146;BME280;2591;48.144;15.152;2023-07-13T00:38:22;74694.16;;;-144.65;100.00
5146;BME280;2591;48.144;15.152;2023-07-13T00:41:27;74692.13;;;-144.65;100.00
5146;BME280;2591;48.144;15.152;2023-07-13T00:43:55;74688.06;;;-144.65;100.00
5146;BME280;2591;48.144;15.152;2023-07-13T00:46:27;74688.06;;;-144.65;100.00
5146;BME280;2591;48.144;15.152;2023-07-13T00:48:58;74696.19;;;-144.65;100.00
5146;BME280;2591;48.144;15.152;2023-07-13T00:51:34;74704.34;;;-144.65;100.00
5146;BME280;2591;48.144;15.152;2023-07-13T00:54:05;74700.28;;;-144.65;100.00
5146;BME280;2591;48.144;15.152;2023-07-13T00:56:34;74700.28;;;-144.65;100.00
5146;BME280;2591;48.144;15.152;2023-07-13T00:59:04;74692.13;;;-144.65;100.00
5146;BME280;2591;48.144;15.152;2023-07-13T01:01:35;74688.06;;;-144.65;100.00
5146;BME280;2591;48.144;15.152;2023-07-13T01:04:04;74692.13;;;-144.65;100.00
5146;BME280;2591;48.144;15.152;2023-07-13T01:07:12;74700.28;;;-144.65;100.00
5146;BME280;2591;48.144;15.152;2023-07-13T01:10:21;74700.28;;;-144.65;100.00
5146;BME280;2591;48.144;15.152;2023-07-13T01:13:26;74696.19;;;-144.65;100.00
5146;BME280;2591;48.144;15.152;2023-07-13T01:15:57;74692.13;;;-144.65;100.00
5146;BME280;2591;48.144;15.152;2023-07-13T01:18:28;74696.19;;;-144.65;100.00
5146;BME280;2591;48.144;15.152;2023-07-13T01:21:00;74694.16;;;-144.65;100.00
5146;BME280;2591;48.144;15.152;2023-07-13T01:23:29;74692.13;;;-144.65;100.00
5146;BME280;2591;48.144;15.152;2023-07-13T01:25:59;74698.25;;;-144.65;100.00
5146;BME280;2591;48.144;15.152;2023-07-13T01:28:28;74696.19;;;-144.65;100.00
5146;BME280;2591;48.144;15.152;2023-07-13T01:30:58;74702.31;;;-144.65;100.00
5146;BME280;2591;48.144;15.152;2023-07-13T01:33:26;74700.28;;;-144.65;100.00
5146;BME280;2591;48.144;15.152;2023-07-13T01:35:54;74692.13;;;-144.65;100.00
5146;BME280;2591;48.144;15.152;2023-07-13T01:38:25;74686.00;;;-144.65;100.00
5146;BME280;2591;48.144;15.152;2023-07-13T01:40:54;74683.97;;;-144.65;100.00
5146;BME280;2591;48.144;15.152;2023-07-13T01:43:22;74681.94;;;-144.65;100.00
5146;BME280;2591;48.144;15.152;2023-07-13T01:45:49;74673.78;;;-144.65;100.00
5146;BME280;2591;48.144;15.152;2023-07-13T01:48:18;74669.72;;;-144.65;100.00
5146;BME280;2591;48.144;15.152;2023-07-13T01:50:47;74663.59;;;-144.65;100.00
5146;BME280;2591;48.144;15.152;2023-07-13T01:53:15;74663.59;;;-144.65;100.00
5146;BME280;2591;48.144;15.152;2023-07-13T01:55:45;74659.53;;;-144.65;100.00
5146;BME280;2591;48.144;15.152;2023-07-13T01:58:12;74673.78;;;-144.65;100.00
5146;BME280;2591;48.144;15.152;2023-07-13T02:00:40;74683.97;;;-144.65;100.00
5146;BME280;2591;48.144;15.152;2023-07-13T02:03:08;74692.13;;;-144.65;100.00
5146;BME280;2591;48.144;15.152;2023-07-13T02:05:36;74698.25;;;-144.65;100.00
5146;BME280;2591;48.144;15.152;2023-07-13T02:08:04;74708.44;;;-144.65;100.00
5146;BME280;2591;48.144;15.152;2023-07-13T02:10:32;74712.50;;;-144.65;100.00
5146;BME280;2591;48.144;15.152;2023-07-13T02:13:01;74712.50;;;-144.65;100.00
5146;BME280;2591;48.144;15.152;2023-07-13T02:15:29;74716.59;;;-144.65;100.00
5146;BME280;2591;48.144;15.152;2023-07-13T02:17:57;74720.66;;;-144.65;100.00
5146;BME280;2591;48.144;15.152;2023-07-13T02:20:25;74736.97;;;-144.65;100.00
5146;BME280;2591;48.144;15.152;2023-07-13T02:22:54;74739.00;;;-144.65;100.00
5146;BME280;2591;48.144;15.152;2023-07-13T02:25:22;74755.31;;;-144.65;100.00
5146;BME280;2591;48.144;15.152;2023-07-13T02:27:51;74765.50;;;-144.65;100.00
5146;BME280;2591;48.144;15.152;2023-07-13T02:30:20;74765.50;;;-144.65;100.00
5146;BME280;2591;48.144;15.152;2023-07-13T02:32:51;74769.56;;;-144.65;100.00
5146;BME280;2591;48.144;15.152;2023-07-13T02:35:19;74777.72;;;-144.65;100.00
5146;BME280;2591;48.144;15.152;2023-07-13T02:37:47;74767.53;;;-144.65;100.00
5146;BME280;2591;48.144;15.152;2023-07-13T02:40:15;74767.53;;;-144.65;100.00
5146;BME280;2591;48.144;15.152;2023-07-13T02:42:43;74771.59;;;-144.65;100.00
5146;BME280;2591;48.144;15.152;2023-07-13T02:45:11;74765.50;;;-144.65;100.00
5146;BME280;2591;48.144;15.152;2023-07-13T02:47:42;74763.47;;;-144.65;100.00
5146;BME280;2591;48.144;15.152;2023-07-13T02:50:10;74767.53;;;-144.65;100.00
5146;BME280;2591;48.144;15.152;2023-07-13T02:52:37;74769.56;;;-144.65;100.00
5146;BME280;2591;48.144;15.152;2023-07-13T02:55:06;74773.66;;;-144.65;100.00
5146;BME280;2591;48.144;15.152;2023-07-13T02:57:34;74773.66;;;-144.65;100.00
5146;BME280;2591;48.144;15.152;2023-07-13T03:00:03;74761.41;;;-144.65;100.00
5146;BME280;2591;48.144;15.152;2023-07-13T03:02:33;74767.53;;;-144.65;100.00
5146;BME280;2591;48.144;15.152;2023-07-13T03:05:04;74763.47;;;-144.65;100.00
5146;BME280;2591;48.144;15.152;2023-07-13T03:07:32;74761.41;;;-144.65;100.00
5146;BME280;2591;48.144;15.152;2023-07-13T03:10:00;74757.34;;;-144.65;100.00
5146;BME280;2591;48.144;15.152;2023-07-13T03:12:28;74755.31;;;-144.65;100.00
5146;BME280;2591;48.144;15.152;2023-07-13T03:14:57;74749.19;;;-144.65;100.00
5146;BME280;2591;48.144;15.152;2023-07-13T03:17:24;74745.13;;;-144.65;100.00
5146;BME280;2591;48.144;15.152;2023-07-13T03:19:52;74734.94;;;-144.65;100.00
5146;BME280;2591;48.144;15.152;2023-07-13T03:22:22;74730.84;;;-144.65;100.00
5146;BME280;2591;48.144;15.152;2023-07-13T03:24:50;74716.59;;;-144.65;100.00
5146;BME280;2591;48.144;15.152;2023-07-13T03:27:18;74712.50;;;-144.65;100.00
5146;BME280;2591;48.144;15.152;2023-07-13T03:29:46;74704.34;;;-144.65;100.00
5146;BME280;2591;48.144;15.152;2023-07-13T03:32:14;74696.19;;;-144.65;100.00
5146;BME280;2591;48.144;15.152;2023-07-13T03:34:42;74696.19;;;-144.65;100.00
5146;BME280;2591;48.144;15.152;2023-07-13T03:37:10;74698.25;;;-144.65;100.00
5146;BME280;2591;48.144;15.152;2023-07-13T03:39:39;74692.13;;;-144.65;100.00
5146;BME280;2591;48.144;15.152;2023-07-13T03:42:07;74683.97;;;-144.65;100.00
5146;BME280;2591;48.144;15.152;2023-07-13T03:44:35;74675.81;;;-144.65;100.00
5146;BME280;2591;48.144;15.152;2023-07-13T03:47:04;74675.81;;;-144.65;100.00
5146;BME280;2591;48.144;15.152;2023-07-13T03:49:32;74681.94;;;-144.65;100.00
5146;BME280;2591;48.144;15.152;2023-07-13T03:52:00;74688.06;;;-144.65;100.00
5146;BME280;2591;48.144;15.152;2023-07-13T03:54:28;74688.06;;;-144.65;100.00
5146;BME280;2591;48.144;15.152;2023-07-13T03:56:57;74683.97;;;-144.65;100.00
5146;BME280;2591;48.144;15.152;2023-07-13T03:59:25;74675.81;;;-144.65;100.00
5146;BME280;2591;48.144;15.152;2023-07-13T04:01:54;74683.97;;;-144.65;100.00
5146;BME280;2591;48.144;15.152;2023-07-13T04:04:22;74683.97;;;-144.65;100.00
5146;BME280;2591;48.144;15.152;2023-07-13T04:06:50;74688.06;;;-144.65;100.00
5146;BME280;2591;48.144;15.152;2023-07-13T04:09:19;74692.13;;;-144.65;100.00
5146;BME280;2591;48.144;15.152;2023-07-13T04:11:47;74683.97;;;-144.65;100.00
5146;BME280;2591;48.144;15.152;2023-07-13T04:14:17;74681.94;;;-144.65;100.00
5146;BME280;2591;48.144;15.152;2023-07-13T04:16:45;74679.91;;;-144.65;100.00
5146;BME280;2591;48.144;15.152;2023-07-13T04:19:13;74688.06;;;-144.65;100.00
5146;BME280;2591;48.144;15.152;2023-07-13T04:21:41;74681.94;;;-144.65;100.00
5146;BME280;2591;48.144;15.152;2023-07-13T04:24:09;74679.91;;;-144.65;100.00
5146;BME280;2591;48.144;15.152;2023-07-13T04:26:37;74679.91;;;-144.65;100.00
5146;BME280;2591;48.144;15.152;2023-07-13T04:29:05;74677.88;;;-144.65;100.00
5146;BME280;2591;48.144;15.152;2023-07-13T04:31:34;74679.91;;;-144.65;100.00
5146;BME280;2591;48.144;15.152;2023-07-13T04:34:02;74679.91;;;-144.65;100.00
5146;BME280;2591;48.144;15.152;2023-07-13T04:36:31;74677.88;;;-144.65;100.00
5146;BME280;2591;48.144;15.152;2023-07-13T04:38:59;74671.75;;;-144.65;100.00
5146;BME280;2591;48.144;15.152;2023-07-13T04:41:26;74659.53;;;-144.65;100.00
5146;BME280;2591;48.144;15.152;2023-07-13T04:43:55;74645.25;;;-144.65;100.00
5146;BME280;2591;48.144;15.152;2023-07-13T04:46:23;74647.28;;;-144.65;100.00
5146;BME280;2591;48.144;15.152;2023-07-13T04:48:52;74637.09;;;-144.65;100.00
5146;BME280;2591;48.144;15.152;2023-07-13T04:51:21;74631.00;;;-144.65;100.00
5146;BME280;2591;48.144;15.152;2023-07-13T04:53:49;74628.94;;;-144.65;100.00
5146;BME280;2591;48.144;15.152;2023-07-13T04:56:23;74622.84;;;-144.65;100.00
5146;BME280;2591;48.144;15.152;2023-07-13T04:58:51;74624.88;;;-144.65;100.00
5146;BME280;2591;48.144;15.152;2023-07-13T05:01:19;74626.91;;;-144.65;100.00
5146;BME280;2591;48.144;15.152;2023-07-13T05:03:47;74618.75;;;-144.65;100.00
5146;BME280;2591;48.144;15.152;2023-07-13T05:06:16;74610.63;;;-144.65;100.00
5146;BME280;2591;48.144;15.152;2023-07-13T05:08:44;74614.69;;;-144.65;100.00
5146;BME280;2591;48.144;15.152;2023-07-13T05:11:12;74614.69;;;-144.65;100.00
5146;BME280;2591;48.144;15.152;2023-07-13T05:13:40;74633.03;;;-144.65;100.00
5146;BME280;2591;48.144;15.152;2023-07-13T05:16:08;74645.25;;;-144.65;100.00
5146;BME280;2591;48.144;15.152;2023-07-13T05:18:36;74647.28;;;-144.65;100.00
5146;BME280;2591;48.144;15.152;2023-07-13T05:21:09;74645.25;;;-144.65;100.00
5146;BME280;2591;48.144;15.152;2023-07-13T05:23:40;74645.25;;;-144.65;100.00
5146;BME280;2591;48.144;15.152;2023-07-13T05:26:09;74645.25;;;-144.65;100.00
5146;BME280;2591;48.144;15.152;2023-07-13T05:28:38;74651.38;;;-144.65;100.00
5146;BME280;2591;48.144;15.152;2023-07-13T05:31:07;74653.41;;;-144.65;100.00
5146;BME280;2591;48.144;15.152;2023-07-13T05:33:35;74659.53;;;-144.65;100.00
5146;BME280;2591;48.144;15.152;2023-07-13T05:36:03;74659.53;;;-144.65;100.00
5146;BME280;2591;48.144;15.152;2023-07-13T05:38:31;74653.41;;;-144.65;100.00
5146;BME280;2591;48.144;15.152;2023-07-13T05:41:00;74653.41;;;-144.65;100.00
5146;BME280;2591;48.144;15.152;2023-07-13T05:43:31;74657.47;;;-144.65;100.00
5146;BME280;2591;48.144;15.152;2023-07-13T05:45:59;74659.53;;;-144.65;100.00
5146;BME280;2591;48.144;15.152;2023-07-13T05:48:27;74667.69;;;-144.65;100.00
5146;BME280;2591;48.144;15.152;2023-07-13T05:50:55;74663.59;;;-144.65;100.00
5146;BME280;2591;48.144;15.152;2023-07-13T05:53:23;74665.63;;;-144.65;100.00
5146;BME280;2591;48.144;15.152;2023-07-13T05:55:54;74659.53;;;-144.65;100.00
5146;BME280;2591;48.144;15.152;2023-07-13T05:58:23;74661.56;;;-144.65;100.00
5146;BME280;2591;48.144;15.152;2023-07-13T06:00:59;74657.47;;;-144.65;100.00
5146;BME280;2591;48.144;15.152;2023-07-13T06:03:28;74661.56;;;-144.65;100.00
5146;BME280;2591;48.144;15.152;2023-07-13T06:05:56;74671.75;;;-144.65;100.00
5146;BME280;2591;48.144;15.152;2023-07-13T06:08:23;74667.69;;;-144.65;100.00
5146;BME280;2591;48.144;15.152;2023-07-13T06:10:52;74671.75;;;-144.65;100.00
5146;BME280;2591;48.144;15.152;2023-07-13T06:13:20;74663.59;;;-144.65;100.00
5146;BME280;2591;48.144;15.152;2023-07-13T06:15:49;74655.44;;;-144.65;100.00
5146;BME280;2591;48.144;15.152;2023-07-13T06:18:18;74659.53;;;-144.65;100.00
5146;BME280;2591;48.144;15.152;2023-07-13T06:20:45;74653.41;;;-144.65;100.00
5146;BME280;2591;48.144;15.152;2023-07-13T06:23:13;74657.47;;;-144.65;100.00
5146;BME280;2591;48.144;15.152;2023-07-13T06:25:42;74659.53;;;-144.65;100.00
5146;BME280;2591;48.144;15.152;2023-07-13T06:28:10;74659.53;;;-144.65;100.00
5146;BME280;2591;48.144;15.152;2023-07-13T06:30:38;74663.59;;;-144.65;100.00
5146;BME280;2591;48.144;15.152;2023-07-13T06:33:08;74659.53;;;-144.65;100.00
5146;BME280;2591;48.144;15.152;2023-07-13T06:35:36;74647.28;;;-144.65;100.00
5146;BME280;2591;48.144;15.152;2023-07-13T06:38:04;74657.47;;;-144.65;100.00
5146;BME280;2591;48.144;15.152;2023-07-13T06:40:32;74663.59;;;-144.65;100.00
5146;BME280;2591;48.144;15.152;2023-07-13T06:43:00;74659.53;;;-144.65;100.00
5146;BME280;2591;48.144;15.152;2023-07-13T06:45:28;74663.59;;;-144.65;100.00
5146;BME280;2591;48.144;15.152;2023-07-13T06:47:56;74659.53;;;-144.65;100.00
5146;BME280;2591;48.144;15.152;2023-07-13T06:50:25;74659.53;;;-144.65;100.00
5146;BME280;2591;48.144;15.152;2023-07-13T06:52:53;74663.59;;;-144.65;100.00
5146;BME280;2591;48.144;15.152;2023-07-13T06:55:21;74663.59;;;-144.65;100.00
5146;BME280;2591;48.144;15.152;2023-07-13T06:57:49;74661.56;;;-144.65;100.00
5146;BME280;2591;48.144;15.152;2023-07-13T07:00:17;74645.25;;;-144.65;100.00
5146;BME280;2591;48.144;15.152;2023-07-13T07:02:45;74639.13;;;-144.65;100.00
5146;BME280;2591;48.144;15.152;2023-07-13T07:05:14;74643.22;;;-144.65;100.00
5146;BME280;2591;48.144;15.152;2023-07-13T07:07:43;74643.22;;;-144.65;100.00
5146;BME280;2591;48.144;15.152;2023-07-13T07:10:11;74635.06;;;-144.65;100.00
5146;BME280;2591;48.144;15.152;2023-07-13T07:12:39;74643.22;;;-144.65;100.00
5146;BME280;2591;48.144;15.152;2023-07-13T07:15:07;74649.34;;;-144.65;100.00
5146;BME280;2591;48.144;15.152;2023-07-13T07:17:35;74659.53;;;-144.65;100.00
5146;BME280;2591;48.144;15.152;2023-07-13T07:20:06;74667.69;;;-144.65;100.00
5146;BME280;2591;48.144;15.152;2023-07-13T07:22:35;74659.53;;;-144.65;100.00
5146;BME280;2591;48.144;15.152;2023-07-13T07:25:07;74661.56;;;-144.65;100.00
5146;BME280;2591;48.144;15.152;2023-07-13T07:27:35;74647.28;;;-144.65;100.00
5146;BME280;2591;48.144;15.152;2023-07-13T07:30:08;74626.91;;;-144.65;100.00
5146;BME280;2591;48.144;15.152;2023-07-13T07:32:39;74614.69;;;-144.65;100.00
5146;BME280;2591;48.144;15.152;2023-07-13T07:35:22;74606.53;;;-144.65;100.00
5146;BME280;2591;48.144;15.152;2023-07-13T07:37:50;74600.41;;;-144.65;100.00
5146;BME280;2591;48.144;15.152;2023-07-13T07:40:20;74608.56;;;-144.65;100.00
5146;BME280;2591;48.144;15.152;2023-07-13T07:42:52;74618.75;;;-144.65;100.00
5146;BME280;2591;48.144;15.152;2023-07-13T07:45:20;74626.91;;;-144.65;100.00
5146;BME280;2591;48.144;15.152;2023-07-13T07:47:48;74631.00;;;-144.65;100.00
5146;BME280;2591;48.144;15.152;2023-07-13T07:50:16;74657.47;;;-144.65;100.00
5146;BME280;2591;48.144;15.152;2023-07-13T07:52:46;74667.69;;;-144.65;100.00
5146;BME280;2591;48.144;15.152;2023-07-13T07:55:13;74673.78;;;-144.65;100.00
5146;BME280;2591;48.144;15.152;2023-07-13T07:57:46;74679.91;;;-144.65;100.00
5146;BME280;2591;48.144;15.152;2023-07-13T08:00:17;74683.97;;;-144.65;100.00
5146;BME280;2591;48.144;15.152;2023-07-13T08:02:48;74692.13;;;-144.65;100.00
5146;BME280;2591;48.144;15.152;2023-07-13T08:05:19;74688.06;;;-144.65;100.00
5146;BME280;2591;48.144;15.152;2023-07-13T08:08:04;74692.13;;;-144.65;100.00
5146;BME280;2591;48.144;15.152;2023-07-13T08:10:35;74686.00;;;-144.65;100.00
5146;BME280;2591;48.144;15.152;2023-07-13T08:13:04;74679.91;;;-144.65;100.00
5146;BME280;2591;48.144;15.152;2023-07-13T08:15:38;74665.63;;;-144.65;100.00
5146;BME280;2591;48.144;15.152;2023-07-13T08:18:06;74663.59;;;-144.65;100.00
5146;BME280;2591;48.144;15.152;2023-07-13T08:20:37;74647.28;;;-144.65;100.00
5146;BME280;2591;48.144;15.152;2023-07-13T08:23:05;74651.38;;;-144.65;100.00
5146;BME280;2591;48.144;15.152;2023-07-13T08:25:33;74635.06;;;-144.65;100.00
5146;BME280;2591;48.144;15.152;2023-07-13T08:28:02;74626.91;;;-144.65;100.00
5146;BME280;2591;48.144;15.152;2023-07-13T08:30:32;74612.66;;;-144.65;100.00
5146;BME280;2591;48.144;15.152;2023-07-13T08:33:00;74612.66;;;-144.65;100.00
5146;BME280;2591;48.144;15.152;2023-07-13T08:35:28;74606.53;;;-144.65;100.00
5146;BME280;2591;48.144;15.152;2023-07-13T08:37:57;74606.53;;;-144.65;100.00
5146;BME280;2591;48.144;15.152;2023-07-13T08:40:27;74614.69;;;-144.65;100.00
5146;BME280;2591;48.144;15.152;2023-07-13T08:42:57;74626.91;;;-144.65;100.00
5146;BME280;2591;48.144;15.152;2023-07-13T08:45:30;74608.56;;;-144.65;100.00
5146;BME280;2591;48.144;15.152;2023-07-13T08:48:08;74598.38;;;-144.65;100.00
5146;BME280;2591;48.144;15.152;2023-07-13T08:50:43;74582.09;;;-144.65;100.00
5146;BME280;2591;48.144;15.152;2023-07-13T08:53:32;74561.69;;;-144.65;100.00
5146;BME280;2591;48.144;15.152;2023-07-13T08:56:04;74569.84;;;-144.65;100.00
5146;BME280;2591;48.144;15.152;2023-07-13T08:58:36;74582.09;;;-144.65;100.00
5146;BME280;2591;48.144;15.152;2023-07-13T09:01:11;74598.38;;;-144.65;100.00
5146;BME280;2591;48.144;15.152;2023-07-13T09:03:48;74602.47;;;-144.65;100.00
5146;BME280;2591;48.144;15.152;2023-07-13T09:06:20;74602.47;;;-144.65;100.00
5146;BME280;2591;48.144;15.152;2023-07-13T09:08:57;74598.38;;;-144.65;100.00
5146;BME280;2591;48.144;15.152;2023-07-13T09:11:38;74596.34;;;-144.65;100.00
5146;BME280;2591;48.144;15.152;2023-07-13T09:14:37;74578.00;;;-144.65;100.00
5146;BME280;2591;48.144;15.152;2023-07-13T09:17:13;74557.63;;;-144.65;100.00
5146;BME280;2591;48.144;15.152;2023-07-13T09:19:46;74533.16;;;-144.65;100.00
5146;BME280;2591;48.144;15.152;2023-07-13T09:22:19;74525.03;;;-144.65;100.00
5146;BME280;2591;48.144;15.152;2023-07-13T09:24:53;74508.72;;;-144.65;100.00
5146;BME280;2591;48.144;15.152;2023-07-13T09:27:39;74510.75;;;-144.65;100.00
5146;BME280;2591;48.144;15.152;2023-07-13T09:30:22;74476.13;;;-144.65;100.00
5146;BME280;2591;48.144;15.152;2023-07-13T09:32:53;74467.97;;;-144.65;100.00
5146;BME280;2591;48.144;15.152;2023-07-13T09:35:26;74472.03;;;-144.65;100.00
5146;BME280;2591;48.144;15.152;2023-07-13T09:38:04;74488.34;;;-144.65;100.00
5146;BME280;2591;48.144;15.152;2023-07-13T09:40:44;74484.25;;;-144.65;100.00
5146;BME280;2591;48.144;15.152;2023-07-13T09:43:16;74467.97;;;-144.65;100.00
5146;BME280;2591;48.144;15.152;2023-07-13T09:45:46;74463.88;;;-144.65;100.00
5146;BME280;2591;48.144;15.152;2023-07-13T09:48:16;74451.66;;;-144.65;100.00
5146;BME280;2591;48.144;15.152;2023-07-13T09:50:47;74439.44;;;-144.65;99.86
5146;BME280;2591;48.144;15.152;2023-07-13T09:53:17;74439.44;;;-144.65;98.36
5146;BME280;2591;48.144;15.152;2023-07-13T09:55:47;74425.16;;;-144.65;100.00
5146;BME280;2591;48.144;15.152;2023-07-13T09:58:21;74404.78;;;-144.65;97.88
5146;BME280;2591;48.144;15.152;2023-07-13T10:00:57;74378.28;;;-144.65;96.58
5146;BME280;2591;48.144;15.152;2023-07-13T10:03:27;74357.91;;;-144.65;96.34
5146;BME280;2591;48.144;15.152;2023-07-13T10:06:11;74345.69;;;-144.65;93.41
5146;BME280;2591;48.144;15.152;2023-07-13T10:08:39;74341.63;;;-144.65;94.25
5146;BME280;2591;48.144;15.152;2023-07-13T10:11:12;74337.53;;;-144.65;90.88
5146;BME280;2591;48.144;15.152;2023-07-13T10:13:54;74339.59;;;-144.65;90.64
5146;BME280;2591;48.144;15.152;2023-07-13T10:16:24;74341.63;;;-144.65;88.38
5146;BME280;2591;48.144;15.152;2023-07-13T10:18:55;74333.47;;;-144.65;87.32
5146;BME280;2591;48.144;15.152;2023-07-13T10:21:33;74317.16;;;-144.65;88.16
5146;BME280;2591;48.144;15.152;2023-07-13T10:24:22;74296.78;;;-144.65;84.11
5146;BME280;2591;48.144;15.152;2023-07-13T10:26:56;74300.88;;;-144.65;82.29
5146;BME280;2591;48.144;15.152;2023-07-13T10:29:27;74300.88;;;-144.65;82.08
5146;BME280;2591;48.144;15.152;2023-07-13T10:31:59;74300.88;;;-144.65;79.22
5146;BME280;2591;48.144;15.152;2023-07-13T10:34:28;74274.38;;;-144.65;78.72
5146;BME280;2591;48.144;15.152;2023-07-13T10:37:00;74276.41;;;-144.65;78.47
5146;BME280;2591;48.144;15.152;2023-07-13T10:39:30;74247.88;;;-144.65;80.25
5146;BME280;2591;48.144;15.152;2023-07-13T10:42:00;74233.63;;;-144.65;77.68
5146;BME280;2591;48.144;15.152;2023-07-13T10:44:32;74245.84;;;-144.65;72.97
5146;BME280;2591;48.144;15.152;2023-07-13T10:47:03;74251.97;;;-144.65;74.83
5146;BME280;2591;48.144;15.152;2023-07-13T10:49:34;74270.28;;;-144.65;75.19
5146;BME280;2591;48.144;15.152;2023-07-13T10:52:05;74247.88;;;-144.65;77.09
5146;BME280;2591;48.144;15.152;2023-07-13T10:54:34;74254.00;;;-144.65;74.59
5146;BME280;2591;48.144;15.152;2023-07-13T10:57:17;74254.00;;;-144.65;73.37
5146;BME280;2591;48.144;15.152;2023-07-13T10:59:48;74276.41;;;-144.65;74.91
5146;BME280;2591;48.144;15.152;2023-07-13T11:02:27;74276.41;;;-144.65;75.38
5146;BME280;2591;48.144;15.152;2023-07-13T11:04:57;74264.19;;;-144.65;73.29
5146;BME280;2591;48.144;15.152;2023-07-13T11:07:30;74219.34;;;-144.65;72.34
5146;BME280;2591;48.144;15.152;2023-07-13T11:10:02;74174.53;;;-144.65;73.75
5146;BME280;2591;48.144;15.152;2023-07-13T11:12:51;74162.31;;;-144.65;70.02
5146;BME280;2591;48.144;15.152;2023-07-13T11:15:31;74182.69;;;-144.65;70.08
5146;BME280;2591;48.144;15.152;2023-07-13T11:18:04;74219.34;;;-144.65;70.07
5146;BME280;2591;48.144;15.152;2023-07-13T11:20:38;74249.91;;;-144.65;68.20
5146;BME280;2591;48.144;15.152;2023-07-13T11:23:29;74270.28;;;-144.65;71.80
5146;BME280;2591;48.144;15.152;2023-07-13T11:25:58;74260.09;;;-144.65;71.12
5146;BME280;2591;48.144;15.152;2023-07-13T11:28:30;74237.69;;;-144.65;72.29
5146;BME280;2591;48.144;15.152;2023-07-13T11:31:13;74215.28;;;-144.65;73.29
5146;BME280;2591;48.144;15.152;2023-07-13T11:33:57;74190.81;;;-144.65;71.43
5146;BME280;2591;48.144;15.152;2023-07-13T11:36:32;74172.50;;;-144.65;72.31
5146;BME280;2591;48.144;15.152;2023-07-13T11:39:14;74137.84;;;-144.65;69.13
5146;BME280;2591;48.144;15.152;2023-07-13T11:41:50;74115.44;;;-144.65;67.48
5146;BME280;2591;48.144;15.152;2023-07-13T11:44:22;74129.69;;;-144.65;66.60
5146;BME280;2591;48.144;15.152;2023-07-13T11:46:53;74109.31;;;-144.65;68.36
5146;BME280;2591;48.144;15.152;2023-07-13T11:49:24;74088.94;;;-144.65;64.73
5146;BME280;2591;48.144;15.152;2023-07-13T11:51:54;74113.41;;;-144.65;64.09
5146;BME280;2591;48.144;15.152;2023-07-13T11:54:27;74127.66;;;-144.65;64.33
5146;BME280;2591;48.144;15.152;2023-07-13T11:56:59;74158.22;;;-144.65;66.06
5146;BME280;2591;48.144;15.152;2023-07-13T11:59:29;74162.31;;;-144.65;67.74
5146;BME280;2591;48.144;15.152;2023-07-13T12:01:59;74125.63;;;-144.65;65.10
5146;BME280;2591;48.144;15.152;2023-07-13T12:04:31;74117.47;;;-144.65;65.01
5146;BME280;2591;48.144;15.152;2023-07-13T12:07:05;74093.03;;;-144.65;64.71
5146;BME280;2591;48.144;15.152;2023-07-13T12:09:36;74076.72;;;-144.65;64.77
5146;BME280;2591;48.144;15.152;2023-07-13T12:12:11;74080.78;;;-144.65;66.14
5146;BME280;2591;48.144;15.152;2023-07-13T12:14:39;74086.91;;;-144.65;66.13
5146;BME280;2591;48.144;15.152;2023-07-13T12:17:21;74074.69;;;-144.65;65.15
5146;BME280;2591;48.144;15.152;2023-07-13T12:19:50;74021.72;;;-144.65;63.59
5146;BME280;2591;48.144;15.152;2023-07-13T12:22:19;74054.31;;;-144.65;63.78
5146;BME280;2591;48.144;15.152;2023-07-13T12:24:51;74088.94;;;-144.65;64.17
5146;BME280;2591;48.144;15.152;2023-07-13T12:27:21;74158.22;;;-144.65;64.61
5146;BME280;2591;48.144;15.152;2023-07-13T12:29:51;74152.13;;;-144.65;64.38
5146;BME280;2591;48.144;15.152;2023-07-13T12:32:20;74137.84;;;-144.65;66.30
5146;BME280;2591;48.144;15.152;2023-07-13T12:34:53;74125.63;;;-144.65;65.32
5146;BME280;2591;48.144;15.152;2023-07-13T12:37:22;74127.66;;;-144.65;65.27
5146;BME280;2591;48.144;15.152;2023-07-13T12:39:52;74141.94;;;-144.65;66.53
5146;BME280;2591;48.144;15.152;2023-07-13T12:42:23;74105.25;;;-144.65;63.36
5146;BME280;2591;48.144;15.152;2023-07-13T12:44:56;74117.47;;;-144.65;64.91
5146;BME280;2591;48.144;15.152;2023-07-13T12:47:25;74097.09;;;-144.65;66.44
5146;BME280;2591;48.144;15.152;2023-07-13T12:49:55;74093.03;;;-144.65;65.54
5146;BME280;2591;48.144;15.152;2023-07-13T12:52:31;74086.91;;;-144.65;65.58
5146;BME280;2591;48.144;15.152;2023-07-13T12:55:07;74084.88;;;-144.65;64.15
5146;BME280;2591;48.144;15.152;2023-07-13T12:57:44;74101.16;;;-144.65;63.47
5146;BME280;2591;48.144;15.152;2023-07-13T13:00:25;74150.06;;;-144.65;64.39
5146;BME280;2591;48.144;15.152;2023-07-13T13:02:55;74168.41;;;-144.65;66.55
5146;BME280;2591;48.144;15.152;2023-07-13T13:05:44;74172.50;;;-144.65;65.54
5146;BME280;2591;48.144;15.152;2023-07-13T13:08:12;74201.00;;;-144.65;66.56